Time;durP1;ratioP1;P1;durP2;ratioP2;P2;SDS_P1;SDS_P2;PMS_P1;PMS_P2;Temp;Humidity;BMP_temperature;BMP_pressure;BME280_temperature;BME280_humidity;BME280_pressure;Samples;Min_cycle;Max_cycle;Signal;HPM_P1;HPM_P2
2023/03/14 00:00:52;;;;;;;1.70;1.10;;;13.00;67.10;;;;;;5052909;28;20200;-76
2023/03/14 00:03:18;;;;;;;1.80;1.17;;;13.30;65.30;;;;;;5053489;28;20640;-76
2023/03/14 00:05:43;;;;;;;1.70;1.20;;;12.70;63.30;;;;;;5052229;28;20456;-76
2023/03/14 00:08:09;;;;;;;1.70;1.10;;;12.70;64.00;;;;;;5052817;28;20184;-76
2023/03/14 00:10:36;;;;;;;1.70;1.10;;;13.30;62.50;;;;;;5051877;28;20270;-76
2023/03/14 00:13:02;;;;;;;1.70;1.10;;;12.90;63.50;;;;;;5051977;28;20620;-75
2023/03/14 00:15:27;;;;;;;1.70;1.03;;;12.60;67.90;;;;;;5051687;28;20415;-75
2023/03/14 00:17:53;;;;;;;1.80;1.20;;;12.70;66.80;;;;;;5049444;28;20191;-75
2023/03/14 00:20:19;;;;;;;1.80;1.20;;;12.80;64.60;;;;;;5052161;28;20691;-74
2023/03/14 00:22:44;;;;;;;1.77;1.13;;;12.60;63.90;;;;;;5052052;28;20177;-73
2023/03/14 00:25:11;;;;;;;1.80;1.10;;;12.90;63.80;;;;;;5052421;28;20177;-74
2023/03/14 00:27:37;;;;;;;1.90;1.20;;;12.10;65.90;;;;;;5049181;28;20288;-74
2023/03/14 00:30:04;;;;;;;1.90;1.20;;;12.50;64.30;;;;;;5051537;28;20836;-75
2023/03/14 00:32:30;;;;;;;1.90;1.20;;;12.10;62.90;;;;;;5051793;28;20449;-73
2023/03/14 00:34:56;;;;;;;1.90;1.30;;;12.20;63.70;;;;;;5051179;28;20430;-75
2023/03/14 00:37:21;;;;;;;1.80;1.10;;;12.10;59.90;;;;;;5048856;28;20259;-74
2023/03/14 00:39:47;;;;;;;1.70;1.10;;;12.30;57.20;;;;;;5051125;28;20222;-74
2023/03/14 00:42:13;;;;;;;1.90;1.23;;;12.80;58.10;;;;;;5052884;28;20664;-74
2023/03/14 00:44:39;;;;;;;1.70;1.10;;;12.50;56.60;;;;;;5052205;28;20448;-75
2023/03/14 00:47:04;;;;;;;1.80;1.13;;;12.60;58.80;;;;;;5049553;28;20256;-74
2023/03/14 00:49:30;;;;;;;1.90;1.20;;;12.70;55.00;;;;;;5048724;28;20197;-75
2023/03/14 00:51:56;;;;;;;1.70;1.10;;;12.70;53.50;;;;;;5047518;22;20232;-68
2023/03/14 00:54:21;;;;;;;1.77;1.20;;;13.00;52.10;;;;;;5015518;28;20666;-69
2023/03/14 00:56:47;;;;;;;1.70;1.10;;;13.10;51.70;;;;;;5031011;28;20173;-67
2023/03/14 00:59:13;;;;;;;1.70;1.10;;;13.10;51.50;;;;;;5013964;28;20265;-68
2023/03/14 01:01:40;;;;;;;1.70;1.17;;;13.30;51.60;;;;;;5011110;28;20203;-67
2023/03/14 01:04:06;;;;;;;1.70;1.10;;;13.10;50.10;;;;;;5010165;28;20951;-69
2023/03/14 01:06:31;;;;;;;1.70;1.20;;;13.30;50.10;;;;;;5011209;28;20412;-68
2023/03/14 01:08:58;;;;;;;1.70;1.13;;;13.50;49.60;;;;;;5009513;28;20461;-71
2023/03/14 01:11:27;;;;;;;1.70;1.10;;;13.60;48.40;;;;;;5007647;28;20210;-68
2023/03/14 01:13:53;;;;;;;1.70;1.10;;;13.70;47.60;;;;;;5010915;28;20975;-68
2023/03/14 01:16:20;;;;;;;1.70;1.10;;;13.70;48.30;;;;;;5011209;28;20493;-68
2023/03/14 01:18:47;;;;;;;1.70;1.10;;;13.90;48.40;;;;;;5010092;28;20443;-71
2023/03/14 01:21:16;;;;;;;1.60;1.10;;;14.10;49.40;;;;;;5009065;28;20448;-68
2023/03/14 01:23:43;;;;;;;1.70;1.10;;;14.30;46.50;;;;;;5002870;28;20441;-67
2023/03/14 01:26:10;;;;;;;1.60;1.00;;;14.40;48.50;;;;;;5011353;28;20413;-69
2023/03/14 01:28:36;;;;;;;1.70;1.20;;;14.30;46.60;;;;;;5010602;28;20422;-72
2023/03/14 01:31:07;;;;;;;1.70;1.10;;;14.50;46.90;;;;;;5009028;28;20972;-68
2023/03/14 01:33:33;;;;;;;1.60;1.10;;;14.70;43.00;;;;;;5008405;28;20581;-69
2023/03/14 01:35:59;;;;;;;1.70;1.10;;;14.70;44.40;;;;;;5005263;28;20424;-69
2023/03/14 01:38:24;;;;;;;1.73;1.10;;;14.70;44.30;;;;;;5011103;28;20209;-71
2023/03/14 01:40:50;;;;;;;1.80;1.27;;;14.70;43.70;;;;;;5007220;28;20484;-68
2023/03/14 01:43:18;;;;;;;1.70;1.20;;;14.70;43.70;;;;;;5008012;28;20255;-71
2023/03/14 01:46:05;;;;;;;1.70;1.10;;;14.20;47.40;;;;;;5010835;28;20287;-68
2023/03/14 01:48:36;;;;;;;1.67;1.10;;;14.40;44.90;;;;;;5009518;28;20432;-67
2023/03/14 01:51:03;;;;;;;1.70;1.20;;;14.60;44.00;;;;;;5009935;28;20500;-68
2023/03/14 01:53:29;;;;;;;1.60;1.10;;;14.50;45.20;;;;;;5007602;28;20535;-69
2023/03/14 01:55:57;;;;;;;1.60;1.10;;;14.50;41.70;;;;;;5010600;28;20908;-69
2023/03/14 01:58:27;;;;;;;1.60;1.10;;;14.30;44.70;;;;;;5009672;28;20789;-69
2023/03/14 02:00:53;;;;;;;1.70;1.17;;;14.50;43.50;;;;;;5012718;28;20460;-69
2023/03/14 02:03:22;;;;;;;1.70;1.10;;;14.50;43.00;;;;;;5012640;28;20433;-69
2023/03/14 02:05:49;;;;;;;1.60;1.10;;;14.30;43.40;;;;;;5013725;28;20918;-69
2023/03/14 02:08:19;;;;;;;1.70;1.20;;;13.90;43.40;;;;;;5013471;28;20570;-69
2023/03/14 02:10:48;;;;;;;1.60;1.07;;;13.80;44.30;;;;;;5009675;28;20432;-69
2023/03/14 02:13:15;;;;;;;1.63;1.10;;;13.70;44.50;;;;;;5012536;28;20463;-68
2023/03/14 02:15:41;;;;;;;1.60;1.10;;;13.80;43.80;;;;;;5005244;28;20439;-70
2023/03/14 02:18:08;;;;;;;1.70;1.20;;;13.60;43.70;;;;;;5013532;28;20774;-70
2023/03/14 02:20:54;;;;;;;1.70;1.20;;;13.90;44.50;;;;;;5012301;28;20434;-70
2023/03/14 02:23:30;;;;;;;1.80;1.30;;;12.20;42.30;;;;;;5009207;28;20435;-71
2023/03/14 02:26:05;;;;;;;1.60;1.10;;;13.80;43.50;;;;;;5014045;28;20409;-68
2023/03/14 02:28:31;;;;;;;1.70;1.13;;;14.00;41.80;;;;;;5013968;28;20493;-70
2023/03/14 02:30:57;;;;;;;1.70;1.20;;;14.00;42.20;;;;;;5013058;28;20536;-70
2023/03/14 02:33:23;;;;;;;1.70;1.17;;;13.90;42.10;;;;;;5012035;28;20299;-70
2023/03/14 02:36:01;;;;;;;1.70;1.23;;;13.70;42.80;;;;;;5012465;28;20557;-70
2023/03/14 02:38:52;;;;;;;1.70;1.10;;;13.70;44.00;;;;;;5013914;28;20414;-70
2023/03/14 02:41:18;;;;;;;1.60;1.10;;;13.50;43.00;;;;;;5011003;28;20449;-70
2023/03/14 02:43:43;;;;;;;1.70;1.10;;;13.40;43.70;;;;;;5011240;28;20456;-71
2023/03/14 02:46:13;;;;;;;1.70;1.20;;;13.50;44.40;;;;;;5012477;28;20928;-70
2023/03/14 02:48:44;;;;;;;1.70;1.10;;;13.60;43.80;;;;;;5013530;28;20222;-70
2023/03/14 02:51:11;;;;;;;1.63;1.20;;;13.70;42.70;;;;;;5013188;28;20532;-70
2023/03/14 02:53:38;;;;;;;1.70;1.17;;;13.60;43.20;;;;;;5011558;28;20571;-70
2023/03/14 02:56:04;;;;;;;1.70;1.13;;;13.50;43.70;;;;;;5010830;28;20430;-70
2023/03/14 02:58:30;;;;;;;1.70;1.20;;;13.50;42.70;;;;;;5013246;28;20460;-70
2023/03/14 03:00:56;;;;;;;1.60;1.10;;;13.40;44.30;;;;;;5009218;28;20535;-70
2023/03/14 03:03:21;;;;;;;1.67;1.17;;;12.90;45.10;;;;;;5013181;28;20571;-70
2023/03/14 03:05:50;;;;;;;1.60;1.10;;;12.90;44.80;;;;;;5010049;28;20464;-72
2023/03/14 03:08:16;;;;;;;1.70;1.17;;;12.90;45.30;;;;;;5013071;28;20181;-72
2023/03/14 03:10:41;;;;;;;1.70;1.20;;;13.20;43.90;;;;;;5013312;28;20414;-72
2023/03/14 03:13:07;;;;;;;1.70;1.10;;;13.20;43.20;;;;;;5011905;28;20476;-72
2023/03/14 03:15:32;;;;;;;1.60;1.10;;;13.40;42.90;;;;;;5011281;28;20185;-72
2023/03/14 03:17:58;;;;;;;1.70;1.20;;;13.60;42.20;;;;;;5012505;28;20256;-72
2023/03/14 03:20:24;;;;;;;1.70;1.10;;;13.30;42.80;;;;;;5013144;28;20173;-72
2023/03/14 03:22:49;;;;;;;1.60;1.10;;;12.90;43.50;;;;;;5012875;28;20653;-72
2023/03/14 03:25:15;;;;;;;1.70;1.20;;;13.20;43.70;;;;;;5013246;28;20420;-72
2023/03/14 03:27:41;;;;;;;1.70;1.13;;;12.80;43.40;;;;;;5009306;28;20654;-71
2023/03/14 03:30:08;;;;;;;1.70;1.10;;;13.20;43.60;;;;;;5013045;28;20173;-72
2023/03/14 03:32:34;;;;;;;3.93;1.83;;;13.00;42.90;;;;;;5011314;28;20293;-69
2023/03/14 03:34:59;;;;;;;1.70;1.10;;;12.90;43.50;;;;;;5011633;28;20523;-69
2023/03/14 03:37:25;;;;;;;1.70;1.10;;;12.80;43.50;;;;;;5009526;28;20259;-69
2023/03/14 03:39:51;;;;;;;1.60;1.10;;;13.10;42.30;;;;;;5012848;28;20181;-68
2023/03/14 03:42:17;;;;;;;1.67;1.10;;;12.30;44.00;;;;;;5012722;28;20199;-69
2023/03/14 03:44:43;;;;;;;1.70;1.20;;;12.20;45.10;;;;;;5010857;28;20443;-69
2023/03/14 03:47:09;;;;;;;1.63;1.10;;;12.30;46.00;;;;;;5010760;28;20491;-69
2023/03/14 03:49:35;;;;;;;1.70;1.20;;;12.30;44.00;;;;;;5010185;28;20714;-67
2023/03/14 03:52:00;;;;;;;1.63;1.10;;;12.40;44.20;;;;;;5010471;28;20233;-69
2023/03/14 03:54:26;;;;;;;1.60;1.00;;;12.50;43.20;;;;;;5010675;28;20258;-69
2023/03/14 03:56:52;;;;;;;1.70;1.13;;;12.50;44.20;;;;;;5012682;28;20207;-69
2023/03/14 03:59:18;;;;;;;1.70;1.10;;;12.60;43.60;;;;;;5011400;28;20264;-69
2023/03/14 04:01:43;;;;;;;1.70;1.20;;;12.50;42.90;;;;;;5009685;28;20281;-69
2023/03/14 04:04:09;;;;;;;1.70;1.10;;;12.70;42.30;;;;;;5012055;28;21027;-69
2023/03/14 04:06:34;;;;;;;1.60;1.00;;;12.70;41.60;;;;;;5012372;28;20589;-69
2023/03/14 04:09:00;;;;;;;1.80;1.20;;;12.40;43.00;;;;;;5011413;28;20553;-69
2023/03/14 04:11:26;;;;;;;1.70;1.10;;;12.30;43.60;;;;;;5011003;28;20259;-69
2023/03/14 04:13:52;;;;;;;1.80;1.20;;;12.70;42.90;;;;;;5010873;28;20216;-69
2023/03/14 04:16:21;;;;;;;1.60;1.07;;;12.50;42.20;;;;;;5012222;28;20181;-69
2023/03/14 04:18:47;;;;;;;1.70;1.20;;;12.40;42.40;;;;;;5011064;28;20205;-71
2023/03/14 04:21:13;;;;;;;1.77;1.20;;;12.50;42.40;;;;;;5009795;28;20476;-69
2023/03/14 04:23:38;;;;;;;1.80;1.20;;;12.60;40.70;;;;;;5007888;28;20436;-68
2023/03/14 04:26:04;;;;;;;1.80;1.27;;;13.00;39.40;;;;;;5011783;28;20263;-69
2023/03/14 04:28:30;;;;;;;1.67;1.03;;;12.90;39.60;;;;;;5011787;28;20208;-70
2023/03/14 04:30:56;;;;;;;1.80;1.10;;;12.90;38.00;;;;;;5007968;28;20460;-69
2023/03/14 04:33:21;;;;;;;1.80;1.20;;;12.50;39.00;;;;;;5009755;28;20863;-68
2023/03/14 04:35:47;;;;;;;1.70;1.10;;;12.60;39.30;;;;;;5011089;28;20261;-69
2023/03/14 04:38:13;;;;;;;1.70;1.10;;;12.60;38.40;;;;;;5011748;28;20222;-68
2023/03/14 04:40:40;;;;;;;1.70;1.17;;;12.60;38.50;;;;;;5011720;28;20450;-68
2023/03/14 04:43:08;;;;;;;1.70;1.10;;;12.70;37.90;;;;;;5008846;28;20444;-68
2023/03/14 04:45:33;;;;;;;1.70;1.10;;;12.50;37.30;;;;;;5010016;28;20439;-68
2023/03/14 04:47:59;;;;;;;1.60;1.10;;;13.00;36.30;;;;;;5011580;28;20424;-69
2023/03/14 04:50:24;;;;;;;1.80;1.20;;;13.00;35.90;;;;;;5010371;28;20181;-69
2023/03/14 04:52:50;;;;;;;1.70;1.17;;;13.20;35.30;;;;;;5010302;28;20209;-68
2023/03/14 04:55:16;;;;;;;1.70;1.17;;;13.20;36.10;;;;;;5009333;28;20174;-68
2023/03/14 04:57:41;;;;;;;1.80;1.20;;;12.80;35.50;;;;;;5010921;28;20177;-69
2023/03/14 05:00:08;;;;;;;1.70;1.10;;;12.70;34.90;;;;;;5005975;28;20556;-68
2023/03/14 05:02:35;;;;;;;1.90;1.27;;;12.80;35.50;;;;;;5009415;28;20193;-69
2023/03/14 05:05:00;;;;;;;1.70;1.10;;;12.60;35.90;;;;;;5007722;28;20491;-69
2023/03/14 05:07:26;;;;;;;1.60;1.10;;;12.80;35.60;;;;;;5010419;28;20948;-69
2023/03/14 05:09:53;;;;;;;1.60;1.10;;;12.70;35.70;;;;;;5011314;28;20824;-69
2023/03/14 05:12:19;;;;;;;2.00;1.40;;;12.60;36.30;;;;;;5011210;28;20187;-69
2023/03/14 05:14:45;;;;;;;1.70;1.20;;;12.40;36.50;;;;;;5007951;28;20463;-70
2023/03/14 05:17:11;;;;;;;1.80;1.20;;;12.60;36.70;;;;;;5011115;28;20435;-70
2023/03/14 05:19:37;;;;;;;1.70;1.10;;;12.50;36.00;;;;;;5010523;28;20170;-69
2023/03/14 05:22:03;;;;;;;1.70;1.10;;;12.90;36.40;;;;;;5010954;28;20482;-69
2023/03/14 05:24:28;;;;;;;1.70;1.10;;;12.10;37.50;;;;;;5009081;28;20440;-69
2023/03/14 05:26:54;;;;;;;1.63;1.07;;;12.20;36.30;;;;;;5010251;28;20640;-69
2023/03/14 05:29:19;;;;;;;1.70;1.10;;;12.20;36.80;;;;;;5011232;28;20177;-69
2023/03/14 05:31:45;;;;;;;1.70;1.10;;;12.00;37.30;;;;;;5011121;28;20208;-70
2023/03/14 05:34:11;;;;;;;1.70;1.20;;;12.30;36.20;;;;;;5010268;28;20593;-70
2023/03/14 05:36:36;;;;;;;1.73;1.10;;;12.60;35.40;;;;;;5012205;28;20181;-69
2023/03/14 05:39:02;;;;;;;1.70;1.07;;;12.30;35.80;;;;;;5017924;28;20178;-70
2023/03/14 05:41:29;;;;;;;4.17;1.30;;;12.50;36.00;;;;;;5014974;28;20208;-70
2023/03/14 05:43:54;;;;;;;1.70;1.10;;;12.90;36.80;;;;;;5014685;28;20495;-69
2023/03/14 05:46:20;;;;;;;1.70;1.20;;;12.50;35.40;;;;;;5012910;28;21055;-69
2023/03/14 05:48:46;;;;;;;1.70;1.10;;;12.90;35.80;;;;;;5014248;28;20563;-70
2023/03/14 05:51:11;;;;;;;1.70;1.20;;;12.60;35.10;;;;;;5014542;28;20213;-69
2023/03/14 05:53:37;;;;;;;1.80;1.20;;;12.30;35.10;;;;;;5014159;28;20247;-69
2023/03/14 05:56:02;;;;;;;1.70;1.10;;;12.40;36.10;;;;;;5012570;28;20580;-70
2023/03/14 05:58:28;;;;;;;1.70;1.10;;;12.70;36.40;;;;;;5012548;28;20177;-70
2023/03/14 06:00:54;;;;;;;1.73;1.20;;;12.40;35.80;;;;;;5014325;28;20202;-69
2023/03/14 06:03:19;;;;;;;1.80;1.30;;;12.50;35.10;;;;;;5012858;28;20664;-69
2023/03/14 06:05:45;;;;;;;1.70;1.10;;;12.60;35.50;;;;;;5012987;28;20534;-70
2023/03/14 06:08:11;;;;;;;1.70;1.10;;;12.70;34.90;;;;;;5013425;28;20263;-70
2023/03/14 06:10:37;;;;;;;1.80;1.20;;;12.80;35.00;;;;;;5014342;28;20213;-70
2023/03/14 06:13:03;;;;;;;1.70;1.10;;;12.60;34.80;;;;;;5006415;28;20217;-69
2023/03/14 06:15:29;;;;;;;1.70;1.10;;;12.60;35.30;;;;;;5013797;28;20444;-70
2023/03/14 06:17:55;;;;;;;1.73;1.17;;;12.80;35.00;;;;;;5012959;28;20424;-71
2023/03/14 06:20:21;;;;;;;1.80;1.20;;;13.20;35.30;;;;;;5015581;28;20166;-78
2023/03/14 06:22:47;;;;;;;1.80;1.30;;;12.60;34.80;;;;;;5015993;28;20459;-77
2023/03/14 06:25:12;;;;;;;1.80;1.20;;;13.20;35.30;;;;;;5013834;28;20472;-77
2023/03/14 06:27:38;;;;;;;1.70;1.10;;;12.90;35.00;;;;;;5014127;28;20258;-78
2023/03/14 06:30:05;;;;;;;1.70;1.10;;;12.90;35.00;;;;;;5014765;28;20252;-75
2023/03/14 06:32:30;;;;;;;1.70;1.17;;;12.80;34.90;;;;;;5013586;28;20629;-71
2023/03/14 06:34:57;;;;;;;1.70;1.10;;;13.10;35.20;;;;;;5012225;28;20519;-74
2023/03/14 06:37:23;;;;;;;1.70;1.10;;;12.90;35.10;;;;;;5012486;28;20193;-70
2023/03/14 06:39:49;;;;;;;1.70;1.10;;;13.10;34.90;;;;;;5007511;28;20935;-71
2023/03/14 06:42:14;;;;;;;1.70;1.10;;;13.20;34.50;;;;;;5008021;28;20976;-72
2023/03/14 06:44:40;;;;;;;1.77;1.13;;;12.70;34.90;;;;;;5009779;28;20431;-72
2023/03/14 06:47:05;;;;;;;1.70;1.10;;;13.40;34.60;;;;;;5008880;28;20175;-73
2023/03/14 06:49:31;;;;;;;1.63;1.10;;;13.50;33.90;;;;;;5012829;28;20183;-75
2023/03/14 06:51:56;;;;;;;1.70;1.10;;;13.70;32.80;;;;;;5012737;28;20986;-71
2023/03/14 06:54:22;;;;;;;1.70;1.10;;;13.70;32.30;;;;;;5011900;28;20200;-70
2023/03/14 06:56:48;;;;;;;1.70;1.20;;;13.30;33.10;;;;;;5011632;28;20176;-70
2023/03/14 06:59:13;;;;;;;1.70;1.17;;;12.90;34.50;;;;;;5012858;28;20179;-71
2023/03/14 07:01:39;;;;;;;1.70;1.10;;;13.20;33.80;;;;;;5012089;28;20230;-72
2023/03/14 07:04:05;;;;;;;1.70;1.10;;;13.70;32.60;;;;;;5012301;28;20182;-71
2023/03/14 07:06:31;;;;;;;1.70;1.20;;;13.50;32.30;;;;;;5013213;28;20425;-71
2023/03/14 07:08:57;;;;;;;1.80;1.20;;;13.40;33.20;;;;;;5011571;28;20310;-73
2023/03/14 07:11:23;;;;;;;1.90;1.40;;;13.60;32.20;;;;;;5008044;28;20235;-71
2023/03/14 07:13:48;;;;;;;1.70;1.13;;;13.90;32.10;;;;;;5009766;28;20204;-71
2023/03/14 07:16:14;;;;;;;1.70;1.10;;;14.00;31.50;;;;;;5013075;28;20960;-72
2023/03/14 07:18:41;;;;;;;1.80;1.20;;;13.80;31.70;;;;;;5009962;28;20188;-71
2023/03/14 07:21:08;;;;;;;1.70;1.20;;;13.60;32.60;;;;;;5010966;28;20468;-71
2023/03/14 07:23:34;;;;;;;1.70;1.10;;;13.50;33.10;;;;;;5011677;28;20825;-71
2023/03/14 07:26:00;;;;;;;1.70;1.10;;;13.50;33.00;;;;;;5013196;28;20409;-70
2023/03/14 07:28:27;;;;;;;1.80;1.20;;;13.50;32.10;;;;;;5010913;28;20258;-71
2023/03/14 07:30:53;;;;;;;1.70;1.20;;;13.50;32.90;;;;;;5011901;28;20206;-71
2023/03/14 07:33:19;;;;;;;1.70;1.10;;;13.30;33.70;;;;;;5011598;28;20465;-71
2023/03/14 07:35:48;;;;;;;1.70;1.10;;;13.40;33.10;;;;;;5012255;28;20547;-71
2023/03/14 07:38:13;;;;;;;1.70;1.20;;;13.50;32.30;;;;;;5011379;28;20416;-71
2023/03/14 07:40:39;;;;;;;1.80;1.20;;;13.40;32.90;;;;;;5008992;28;20476;-71
2023/03/14 07:43:05;;;;;;;1.70;1.10;;;14.00;32.00;;;;;;5010191;28;20243;-71
2023/03/14 07:45:30;;;;;;;1.80;1.20;;;14.10;30.80;;;;;;5011912;28;20579;-71
2023/03/14 07:47:57;;;;;;;1.70;1.20;;;14.10;31.90;;;;;;5011831;28;20266;-71
2023/03/14 07:50:26;;;;;;;1.70;1.20;;;14.10;31.40;;;;;;5009253;28;20181;-71
2023/03/14 07:52:51;;;;;;;1.80;1.20;;;14.50;29.90;;;;;;5010852;28;20479;-71
2023/03/14 07:55:18;;;;;;;1.80;1.20;;;14.20;30.80;;;;;;5008807;28;20973;-70
2023/03/14 07:57:43;;;;;;;1.80;1.20;;;14.40;30.40;;;;;;5011603;28;20177;-70
2023/03/14 08:00:10;;;;;;;1.70;1.10;;;14.70;29.90;;;;;;5011854;28;20777;-69
2023/03/14 08:02:36;;;;;;;1.80;1.20;;;14.20;30.00;;;;;;5009455;28;20304;-71
2023/03/14 08:05:03;;;;;;;1.70;1.10;;;14.60;30.40;;;;;;5011555;28;20555;-70
2023/03/14 08:07:29;;;;;;;1.80;1.20;;;14.60;29.70;;;;;;5012398;28;20642;-70
2023/03/14 08:09:54;;;;;;;1.80;1.20;;;14.40;29.90;;;;;;5012157;28;20407;-70
2023/03/14 08:12:20;;;;;;;1.70;1.10;;;14.30;30.10;;;;;;5011224;28;20255;-70
2023/03/14 08:14:46;;;;;;;1.80;1.20;;;14.70;29.80;;;;;;5009878;28;20220;-71
2023/03/14 08:17:11;;;;;;;2.20;1.50;;;14.40;30.40;;;;;;5011085;28;20779;-70
2023/03/14 08:19:37;;;;;;;1.80;1.20;;;14.00;30.30;;;;;;5011101;28;20182;-70
2023/03/14 08:22:03;;;;;;;1.73;1.10;;;14.10;30.80;;;;;;5011282;28;20228;-70
2023/03/14 08:24:28;;;;;;;1.70;1.10;;;14.30;30.30;;;;;;5009983;28;20238;-70
2023/03/14 08:26:54;;;;;;;1.70;1.10;;;14.10;30.20;;;;;;5010930;28;20188;-71
2023/03/14 08:29:20;;;;;;;2.17;1.30;;;14.50;29.50;;;;;;5011348;28;20173;-71
2023/03/14 08:31:45;;;;;;;1.70;1.10;;;14.60;29.80;;;;;;5010576;28;20657;-70
2023/03/14 08:34:11;;;;;;;1.70;1.10;;;14.40;29.50;;;;;;5009048;28;20223;-70
2023/03/14 08:36:36;;;;;;;1.80;1.20;;;13.80;30.80;;;;;;5010363;28;20559;-71
2023/03/14 08:39:03;;;;;;;1.80;1.20;;;14.40;29.70;;;;;;5011748;28;20537;-70
2023/03/14 08:41:29;;;;;;;1.70;1.10;;;15.00;29.30;;;;;;5011285;28;20195;-71
2023/03/14 08:43:55;;;;;;;1.87;1.20;;;15.60;28.70;;;;;;5009486;28;20447;-70
2023/03/14 08:46:20;;;;;;;1.80;1.10;;;15.90;28.20;;;;;;5009239;28;20177;-70
2023/03/14 08:48:46;;;;;;;1.80;1.20;;;15.80;28.00;;;;;;5011732;28;20177;-71
2023/03/14 08:51:13;;;;;;;1.93;1.30;;;16.00;27.90;;;;;;5009478;28;20212;-70
2023/03/14 08:53:40;;;;;;;1.90;1.20;;;15.40;28.50;;;;;;5011234;28;20455;-70
2023/03/14 08:56:06;;;;;;;1.80;1.13;;;15.90;28.30;;;;;;5010479;28;20483;-70
2023/03/14 08:58:33;;;;;;;1.90;1.20;;;15.80;28.60;;;;;;5008935;28;20504;-70
2023/03/14 09:00:59;;;;;;;1.90;1.20;;;16.00;28.70;;;;;;5010538;28;20457;-70
2023/03/14 09:03:25;;;;;;;1.70;1.10;;;15.60;28.80;;;;;;5039531;22;20515;-69
2023/03/14 09:05:51;;;;;;;1.80;1.20;;;15.60;28.90;;;;;;5026111;28;20429;-69
2023/03/14 09:08:17;;;;;;;1.80;1.20;;;15.50;29.00;;;;;;5031176;28;20416;-69
2023/03/14 09:10:43;;;;;;;1.80;1.10;;;15.70;28.70;;;;;;5027807;28;20439;-70
2023/03/14 09:13:09;;;;;;;1.70;1.10;;;15.70;29.00;;;;;;5027503;28;20204;-71
2023/03/14 09:15:34;;;;;;;1.80;1.20;;;15.40;29.00;;;;;;5029685;28;20286;-74
2023/03/14 09:18:00;;;;;;;1.70;1.10;;;15.40;29.30;;;;;;5030624;28;20207;-69
2023/03/14 09:20:26;;;;;;;1.80;1.20;;;15.10;31.50;;;;;;5031319;28;20172;-69
2023/03/14 09:22:52;;;;;;;1.80;1.20;;;15.20;34.90;;;;;;5026343;28;20213;-69
2023/03/14 09:25:18;;;;;;;1.80;1.10;;;14.90;33.40;;;;;;5029465;28;20427;-69
2023/03/14 09:27:43;;;;;;;1.80;1.20;;;14.70;36.70;;;;;;5029304;28;20212;-69
2023/03/14 09:30:10;;;;;;;1.70;1.10;;;15.00;34.70;;;;;;5030630;28;20538;-71
2023/03/14 09:32:36;;;;;;;1.80;1.17;;;15.10;36.40;;;;;;5029045;28;20205;-69
2023/03/14 09:35:01;;;;;;;1.80;1.20;;;15.00;36.40;;;;;;5028715;28;20452;-69
2023/03/14 09:37:27;;;;;;;1.80;1.10;;;14.50;36.50;;;;;;5030816;28;20545;-71
2023/03/14 09:39:52;;;;;;;1.90;1.20;;;14.50;36.50;;;;;;5030358;28;20295;-69
2023/03/14 09:42:26;;;;;;;1.90;1.30;;;14.30;36.70;;;;;;5029638;28;20200;-69
2023/03/14 09:45:00;;;;;;;1.80;1.30;;;14.20;36.30;;;;;;5029551;28;20177;-69
2023/03/14 09:47:27;;;;;;;1.70;1.10;;;14.40;36.30;;;;;;5026322;28;20927;-69
2023/03/14 09:49:53;;;;;;;1.80;1.20;;;14.90;35.70;;;;;;5029188;28;20491;-68
2023/03/14 09:52:39;;;;;;;1.80;1.10;;;14.60;36.70;;;;;;5028577;28;20829;-68
2023/03/14 09:55:12;;;;;;;1.90;1.40;;;14.40;36.40;;;;;;5030469;28;20198;-69
2023/03/14 09:57:38;;;;;;;1.80;1.20;;;14.20;37.90;;;;;;5030887;28;20388;-72
2023/03/14 10:00:14;;;;;;;1.83;1.20;;;14.20;37.50;;;;;;5029668;28;20410;-69
2023/03/14 10:02:42;;;;;;;1.80;1.17;;;14.10;38.50;;;;;;5027442;28;20485;-72
2023/03/14 10:05:16;;;;;;;1.77;1.20;;;14.20;38.20;;;;;;5029735;28;20485;-69
2023/03/14 10:07:41;;;;;;;1.80;1.20;;;14.40;36.40;;;;;;5009557;28;20412;-69
2023/03/14 10:10:26;;;;;;;1.70;1.13;;;14.80;36.80;;;;;;5010777;28;20423;-68
2023/03/14 10:12:57;;;;;;;1.83;1.23;;;15.40;35.40;;;;;;5026426;28;20215;-73
2023/03/14 10:15:31;;;;;;;1.77;1.13;;;15.40;35.40;;;;;;5025358;28;20432;-68
2023/03/14 10:18:00;;;;;;;1.80;1.10;;;15.30;34.20;;;;;;5023326;28;20513;-69
2023/03/14 10:20:38;;;;;;;1.80;1.10;;;15.60;33.10;;;;;;5027025;28;20442;-69
2023/03/14 10:23:24;;;;;;;1.87;1.20;;;15.60;33.70;;;;;;5030435;28;20447;-67
2023/03/14 10:26:00;;;;;;;1.70;1.10;;;16.00;32.30;;;;;;5030490;28;20801;-67
2023/03/14 10:28:42;;;;;;;2.20;1.40;;;16.10;30.80;;;;;;5031722;28;20438;-67
2023/03/14 10:31:07;;;;;;;1.70;1.10;;;15.80;32.40;;;;;;5032035;28;20443;-69
2023/03/14 10:33:35;;;;;;;1.87;1.30;;;15.30;32.00;;;;;;5029947;28;20471;-70
2023/03/14 10:36:22;;;;;;;1.80;1.20;;;15.60;31.50;;;;;;5031613;28;20173;-70
2023/03/14 10:38:48;;;;;;;1.90;1.20;;;14.90;32.60;;;;;;5024481;28;20435;-70
2023/03/14 10:41:27;;;;;;;1.80;1.10;;;15.10;33.20;;;;;;5032792;28;20472;-70
2023/03/14 10:44:00;;;;;;;1.70;1.10;;;14.80;32.20;;;;;;5030516;28;20457;-70
2023/03/14 10:46:29;;;;;;;1.80;1.20;;;14.60;32.60;;;;;;5033628;28;20419;-70
2023/03/14 10:48:55;;;;;;;1.80;1.30;;;14.90;32.50;;;;;;5033227;28;20506;-70
2023/03/14 10:51:26;;;;;;;1.70;1.10;;;14.80;32.50;;;;;;5033371;28;20470;-70
2023/03/14 10:53:58;;;;;;;1.80;1.10;;;14.80;32.00;;;;;;5032415;28;20204;-69
2023/03/14 10:56:25;;;;;;;1.73;1.10;;;14.60;33.20;;;;;;5032677;28;20434;-70
2023/03/14 10:58:57;;;;;;;1.70;1.10;;;15.00;31.50;;;;;;5033224;28;20427;-70
2023/03/14 11:01:36;;;;;;;1.70;1.10;;;15.30;31.60;;;;;;5033433;28;20883;-70
2023/03/14 11:04:08;;;;;;;1.80;1.20;;;15.60;30.80;;;;;;5031161;28;20395;-70
2023/03/14 11:06:39;;;;;;;1.87;1.30;;;15.30;33.10;;;;;;5034454;28;20525;-69
2023/03/14 11:09:24;;;;;;;1.70;1.10;;;15.20;33.20;;;;;;5033361;28;20422;-71
2023/03/14 11:11:50;;;;;;;1.90;1.30;;;15.10;33.30;;;;;;5026061;28;20435;-71
2023/03/14 11:14:40;;;;;;;1.80;1.17;;;14.50;39.40;;;;;;5034174;28;20447;-71
2023/03/14 11:17:20;;;;;;;1.90;1.30;;;13.60;41.30;;;;;;5030948;28;20208;-70
2023/03/14 11:19:53;;;;;;;1.80;1.10;;;13.30;42.70;;;;;;5026316;28;20445;-71
2023/03/14 11:22:31;;;;;;;1.70;1.10;;;12.90;46.00;;;;;;5032233;28;20447;-71
2023/03/14 11:25:20;;;;;;;1.80;1.20;;;12.80;47.10;;;;;;5030077;28;20943;-71
2023/03/14 11:28:09;;;;;;;1.70;1.10;;;13.10;45.70;;;;;;5030570;28;20441;-71
2023/03/14 11:30:58;;;;;;;1.80;1.20;;;12.90;46.90;;;;;;5030395;28;20499;-71
2023/03/14 11:33:42;;;;;;;1.70;1.10;;;12.80;46.00;;;;;;5029012;28;20472;-71
2023/03/14 11:36:11;;;;;;;1.70;1.10;;;12.90;46.30;;;;;;5027250;28;20968;-69
2023/03/14 11:38:51;;;;;;;1.80;1.20;;;13.20;47.70;;;;;;5037600;28;20781;-71
2023/03/14 11:41:25;;;;;;;1.70;1.10;;;13.40;46.50;;;;;;5036339;28;20428;-71
2023/03/14 11:43:56;;;;;;;1.80;1.20;;;13.60;46.00;;;;;;5038101;28;20418;-72
2023/03/14 11:46:36;;;;;;;1.77;1.20;;;13.50;47.80;;;;;;5034253;28;20509;-73
2023/03/14 11:49:38;;;;;;;1.80;1.30;;;13.20;46.00;;;;;;5033897;28;20436;-71
2023/03/14 11:52:15;;;;;;;1.80;1.20;;;13.00;47.70;;;;;;5027665;28;20458;-72
2023/03/14 11:54:55;;;;;;;1.70;1.20;;;13.00;49.30;;;;;;5040291;28;20811;-71
2023/03/14 11:57:22;;;;;;;1.70;1.20;;;13.40;48.10;;;;;;5036830;28;20439;-72
2023/03/14 12:00:12;;;;;;;1.70;1.10;;;13.90;47.00;;;;;;5031227;28;20819;-72
2023/03/14 12:03:08;;;;;;;1.70;1.20;;;13.70;44.20;;;;;;5039736;28;20553;-71
2023/03/14 12:05:59;;;;;;;1.80;1.30;;;13.50;46.40;;;;;;5037766;28;20426;-71
2023/03/14 12:08:47;;;;;;;1.70;1.10;;;13.30;44.80;;;;;;5036359;28;20461;-71
2023/03/14 12:11:38;;;;;;;1.73;1.20;;;13.10;45.60;;;;;;5035410;28;20406;-71
2023/03/14 12:14:21;;;;;;;1.80;1.27;;;12.80;45.80;;;;;;5033258;28;20864;-70
2023/03/14 12:16:48;;;;;;;1.90;1.23;;;12.60;47.80;;;;;;5027393;28;20443;-73
2023/03/14 12:19:38;;;;;;;1.80;1.30;;;12.40;48.80;;;;;;5033474;28;20954;-71
2023/03/14 12:22:51;;;;;;;2.53;1.30;;;12.10;53.90;;;;;;5029167;28;20512;-69
2023/03/14 12:25:19;;;;;;;1.80;1.10;;;12.40;58.20;;;;;;4994279;28;20444;-70
2023/03/14 12:27:47;;;;;;;1.70;1.10;;;11.80;65.60;;;;;;4985660;28;20441;-70
2023/03/14 12:30:25;;;;;;;1.70;1.10;;;11.20;74.00;;;;;;4983918;28;20453;-70
2023/03/14 12:33:09;;;;;;;1.70;1.10;;;10.80;78.80;;;;;;4995898;28;20826;-69
2023/03/14 12:35:40;;;;;;;1.80;1.17;;;10.50;63.40;;;;;;5009406;28;20450;-70
2023/03/14 12:38:13;;;;;;;1.90;1.23;;;10.00;67.90;;;;;;4999396;28;20454;-70
2023/03/14 12:40:59;;;;;;;2.00;1.30;;;10.20;69.40;;;;;;4987827;28;20444;-70
2023/03/14 12:43:28;;;;;;;1.80;1.20;;;11.00;61.00;;;;;;5006538;28;20447;-70
2023/03/14 12:46:18;;;;;;;1.93;1.37;;;10.90;56.00;;;;;;5005871;28;20503;-70
2023/03/14 12:48:46;;;;;;;1.80;1.10;;;11.30;58.00;;;;;;4984928;28;20456;-70
2023/03/14 12:51:39;;;;;;;1.80;1.20;;;11.20;53.60;;;;;;4971039;28;20441;-70
2023/03/14 12:54:26;;;;;;;1.80;1.20;;;11.40;51.20;;;;;;4982915;28;20461;-70
2023/03/14 12:56:58;;;;;;;1.90;1.20;;;11.20;49.60;;;;;;4995822;28;20499;-70